createdAt,value
2018-12-21T00:00:39.578Z,80.72
2018-12-21T00:01:39.615Z,80.68
2018-12-21T00:02:39.688Z,81.30
2018-12-21T00:03:39.737Z,81.60
2018-12-21T00:04:39.792Z,81.17
2018-12-21T00:05:39.831Z,81.75
2018-12-21T00:06:39.892Z,81.65
2018-12-21T00:07:39.926Z,81.56
2018-12-21T00:08:39.979Z,81.46
2018-12-21T00:09:40.032Z,81.65
2018-12-21T00:10:40.087Z,82.34
2018-12-21T00:11:40.138Z,82.24
2018-12-21T00:12:40.191Z,82.82
2018-12-21T00:13:40.270Z,82.63
2018-12-21T00:14:40.298Z,82.63
2018-12-21T00:15:40.397Z,82.92
2018-12-21T00:16:40.400Z,82.98
2018-12-21T00:17:40.492Z,83.56
2018-12-21T00:18:40.506Z,83.31
2018-12-21T00:19:40.561Z,83.47
2018-12-21T00:20:40.596Z,83.27
2018-12-21T00:21:40.661Z,83.95
2018-12-21T00:22:40.730Z,83.56
2018-12-21T00:23:40.771Z,83.95
2018-12-21T00:24:40.827Z,83.76
2018-12-21T00:25:40.871Z,84.74
2018-12-21T00:26:40.933Z,84.74
2018-12-21T00:27:40.978Z,84.93
2018-12-21T00:28:41.051Z,85.42
2018-12-21T00:29:41.125Z,85.61
2018-12-21T00:30:41.119Z,85.81
2018-12-21T00:31:41.215Z,86.20
2018-12-21T00:32:41.226Z,86.98
2018-12-21T00:33:41.298Z,86.65
2018-12-21T00:34:41.346Z,86.94
2018-12-21T00:35:41.362Z,87.04
2018-12-21T00:36:41.440Z,87.04
2018-12-21T00:37:41.532Z,87.04
2018-12-21T00:38:41.554Z,87.04
2018-12-21T00:39:41.588Z,87.27
2018-12-21T00:40:41.655Z,88.15
2018-12-21T00:41:41.699Z,89.32
2018-12-21T00:42:41.737Z,88.83
2018-12-21T00:43:41.861Z,89.51
2018-12-21T00:44:41.850Z,89.71
2018-12-21T00:45:41.900Z,90.30
2018-12-21T00:46:41.981Z,90.10
2018-12-21T00:47:42.000Z,91.08
2018-12-21T00:48:42.051Z,90.30
2018-12-21T00:49:42.126Z,90.00
2018-12-21T00:50:42.166Z,90.39
2018-12-21T00:51:42.234Z,90.78
2018-12-21T00:52:42.290Z,89.71
2018-12-21T00:53:42.325Z,87.95
2018-12-21T00:54:42.367Z,87.85
2018-12-21T00:55:42.430Z,88.15
2018-12-21T00:56:42.459Z,88.05
2018-12-21T00:57:42.516Z,87.85
2018-12-21T00:58:42.585Z,87.08
2018-12-21T00:59:42.644Z,87.08
2018-12-21T01:00:42.666Z,86.10
2018-12-21T01:01:42.739Z,86.00
2018-12-21T01:02:42.784Z,85.71
2018-12-21T01:03:42.851Z,85.81
2018-12-21T01:04:42.901Z,85.81
2018-12-21T01:05:42.951Z,86.49
2018-12-21T01:06:42.998Z,86.79
2018-12-21T01:07:43.082Z,86.20
2018-12-21T01:08:43.079Z,86.49
2018-12-21T01:09:43.139Z,86.98
2018-12-21T01:10:43.191Z,86.49
2018-12-21T01:11:43.251Z,86.20
2018-12-21T01:12:43.313Z,86.25
2018-12-21T01:13:43.365Z,86.49
2018-12-21T01:14:43.406Z,86.35
2018-12-21T01:15:43.431Z,86.79
2018-12-21T01:16:43.518Z,87.46
2018-12-21T01:17:43.547Z,87.23
2018-12-21T01:18:43.613Z,87.23
2018-12-21T01:19:43.664Z,86.55
2018-12-21T01:20:43.701Z,87.52
2018-12-21T01:21:43.775Z,87.23
2018-12-21T01:22:43.824Z,87.04
2018-12-21T01:23:43.879Z,87.42
2018-12-21T01:24:43.922Z,87.42
2018-12-21T01:25:44.010Z,87.91
2018-12-21T01:26:44.024Z,88.01
2018-12-21T01:27:44.082Z,88.01
2018-12-21T01:28:44.112Z,88.20
2018-12-21T01:29:44.192Z,87.91
2018-12-21T01:30:44.231Z,87.42
2018-12-21T01:31:44.277Z,87.71
2018-12-21T01:32:44.317Z,88.20
2018-12-21T01:33:44.385Z,88.59
2018-12-21T01:34:44.468Z,88.59
2018-12-21T01:35:44.482Z,88.01
2018-12-21T01:36:44.532Z,87.81
2018-12-21T01:37:44.593Z,88.20
2018-12-21T01:38:44.673Z,88.49
2018-12-21T01:39:44.696Z,88.01
2018-12-21T01:40:44.750Z,88.30
2018-12-21T01:41:44.785Z,88.84
2018-12-21T01:42:44.837Z,88.06
2018-12-21T01:43:44.895Z,88.26
2018-12-21T01:44:44.946Z,88.35
2018-12-21T01:45:45.018Z,88.55
2018-12-21T01:46:45.058Z,88.75
2018-12-21T01:47:45.113Z,89.33
2018-12-21T01:48:45.158Z,88.35
2018-12-21T01:49:45.207Z,89.14
2018-12-21T01:50:45.265Z,89.23
2018-12-21T01:51:47.265Z,89.91
2018-12-21T01:52:45.367Z,90.01
2018-12-21T01:53:45.417Z,90.40
2018-12-21T01:54:45.474Z,90.30
2018-12-21T01:55:45.519Z,90.79
2018-12-21T01:56:45.617Z,90.69
2018-12-21T01:57:45.610Z,90.69
2018-12-21T01:58:45.687Z,90.36
2018-12-21T01:59:45.771Z,91.38
2018-12-21T02:00:45.772Z,90.50
2018-12-21T02:01:45.842Z,90.11
2018-12-21T02:02:45.881Z,90.20
2018-12-21T02:03:45.961Z,90.11
2018-12-21T02:04:45.988Z,90.01
2018-12-21T02:05:46.044Z,88.84
2018-12-21T02:06:46.106Z,89.43
2018-12-21T02:07:46.156Z,89.23
2018-12-21T02:08:46.200Z,88.26
2018-12-21T02:09:46.221Z,88.26
2018-12-21T02:10:46.306Z,88.16
2018-12-21T02:11:46.342Z,87.96
2018-12-21T02:12:46.392Z,87.87
2018-12-21T02:13:46.444Z,88.16
2018-12-21T02:14:46.498Z,88.35
2018-12-21T02:15:46.560Z,87.67
2018-12-21T02:16:46.598Z,87.77
2018-12-21T02:17:46.649Z,88.26
2018-12-21T02:18:46.713Z,88.06
2018-12-21T02:19:46.753Z,87.96
2018-12-21T02:20:46.857Z,88.45
2018-12-21T02:21:55.584Z,89.53
2018-12-21T02:22:46.901Z,88.84
2018-12-21T02:23:46.986Z,89.23
2018-12-21T02:24:47.019Z,88.51
2018-12-21T02:25:47.069Z,88.84
2018-12-21T02:26:47.118Z,88.60
2018-12-21T02:27:47.152Z,88.21
2018-12-21T02:28:47.230Z,88.21
2018-12-21T02:29:47.269Z,89.14
2018-12-21T02:30:47.338Z,89.33
2018-12-21T02:31:47.378Z,89.72
2018-12-21T02:32:47.424Z,89.81
2018-12-21T02:33:47.492Z,90.06
2018-12-21T02:34:47.565Z,89.67
2018-12-21T02:35:47.624Z,89.58
2018-12-21T02:36:47.628Z,90.16
2018-12-21T02:37:47.692Z,90.06
2018-12-21T02:38:47.733Z,90.55
2018-12-21T02:39:47.778Z,91.14
2018-12-21T02:40:47.842Z,89.97
2018-12-21T02:41:47.932Z,90.36
2018-12-21T02:42:47.936Z,90.06
2018-12-21T02:43:47.979Z,89.87
2018-12-21T02:44:48.050Z,89.58
2018-12-21T02:45:48.099Z,88.80
2018-12-21T02:46:48.155Z,88.90
2018-12-21T02:47:48.197Z,89.24
2018-12-21T02:48:48.247Z,88.66
2018-12-21T02:49:48.302Z,87.68
2018-12-21T02:50:48.360Z,87.88
2018-12-21T02:51:48.425Z,85.83
2018-12-21T02:52:48.483Z,84.77
2018-12-21T02:53:48.546Z,85.25
2018-12-21T02:54:48.578Z,85.93
2018-12-21T02:55:48.611Z,85.16
2018-12-21T02:56:48.669Z,84.18
2018-12-21T02:57:48.706Z,84.18
2018-12-21T02:58:48.770Z,84.08
2018-12-21T02:59:48.821Z,83.98
2018-12-21T03:00:48.892Z,83.89
2018-12-21T03:01:48.959Z,83.69
2018-12-21T03:02:48.980Z,84.08
2018-12-21T03:03:49.066Z,83.79
2018-12-21T03:04:49.106Z,84.38
2018-12-21T03:05:49.123Z,84.77
2018-12-21T03:06:49.185Z,84.18
2018-12-21T03:07:49.252Z,83.89
2018-12-21T03:08:49.269Z,84.86
2018-12-21T03:09:49.315Z,83.89
2018-12-21T03:10:49.366Z,84.57
2018-12-21T03:11:49.414Z,84.96
2018-12-21T03:12:49.490Z,84.96
2018-12-21T03:13:49.536Z,85.69
2018-12-21T03:14:49.561Z,85.60
2018-12-21T03:15:49.670Z,85.50
2018-12-21T03:16:49.671Z,85.54
2018-12-21T03:17:49.771Z,85.74
2018-12-21T03:18:49.823Z,85.11
2018-12-21T03:19:49.819Z,85.60
2018-12-21T03:20:49.880Z,85.89
2018-12-21T03:21:49.920Z,85.69
2018-12-21T03:22:49.965Z,85.99
2018-12-21T03:23:50.075Z,85.79
2018-12-21T03:24:50.091Z,86.77
2018-12-21T03:25:50.130Z,85.89
2018-12-21T03:26:50.184Z,85.89
2018-12-21T03:27:50.266Z,86.38
2018-12-21T03:28:50.274Z,85.79
2018-12-21T03:29:50.333Z,85.79
2018-12-21T03:30:50.388Z,86.57
2018-12-21T03:31:50.450Z,86.18
2018-12-21T03:32:50.538Z,86.47
2018-12-21T03:33:50.536Z,86.47
2018-12-21T03:34:50.572Z,86.63
2018-12-21T03:35:50.651Z,86.47
2018-12-21T03:36:50.665Z,87.40
2018-12-21T03:37:50.728Z,86.67
2018-12-21T03:38:50.803Z,86.72
2018-12-21T03:39:50.848Z,86.82
2018-12-21T03:40:50.880Z,86.92
2018-12-21T03:41:50.953Z,86.92
2018-12-21T03:42:50.988Z,87.21
2018-12-21T03:43:51.022Z,87.30
2018-12-21T03:44:51.084Z,87.95
2018-12-21T03:45:51.143Z,88.43
2018-12-21T03:46:51.176Z,88.28
2018-12-21T03:47:51.246Z,88.28
2018-12-21T03:48:51.281Z,88.24
2018-12-21T03:49:51.340Z,88.33
2018-12-21T03:50:51.414Z,88.14
2018-12-21T03:51:51.456Z,88.53
2018-12-21T03:52:51.485Z,87.55
2018-12-21T03:53:51.544Z,87.55
2018-12-21T03:54:51.593Z,88.43
2018-12-21T03:55:51.642Z,88.04
2018-12-21T03:56:51.689Z,88.33
2018-12-21T03:57:51.728Z,88.82
2018-12-21T03:58:51.796Z,88.82
2018-12-21T03:59:51.840Z,88.72
2018-12-21T04:00:51.888Z,88.72
2018-12-21T04:01:51.962Z,89.21
2018-12-21T04:02:52.004Z,89.59
2018-12-21T04:03:52.041Z,89.65
2018-12-21T04:04:52.107Z,89.36
2018-12-21T04:05:52.147Z,88.97
2018-12-21T04:06:52.211Z,89.65
2018-12-21T04:07:52.271Z,90.33
2018-12-21T04:08:52.311Z,90.52
2018-12-21T04:09:52.346Z,90.52
2018-12-21T04:10:52.389Z,90.52
2018-12-21T04:11:52.451Z,90.81
2018-12-21T04:12:52.515Z,90.91
2018-12-21T04:13:52.535Z,90.91
2018-12-21T04:14:52.586Z,90.81
2018-12-21T04:15:52.681Z,90.42
2018-12-21T04:16:52.698Z,90.91
2018-12-21T04:17:52.757Z,89.75
2018-12-21T04:18:52.813Z,89.75
2018-12-21T04:19:52.866Z,90.62
2018-12-21T04:20:52.898Z,90.23
2018-12-21T04:21:52.960Z,89.84
2018-12-21T04:22:53.009Z,89.84
2018-12-21T04:23:53.049Z,88.97
2018-12-21T04:24:53.104Z,88.58
2018-12-21T04:25:53.177Z,89.84
2018-12-21T04:26:53.201Z,89.36
2018-12-21T04:27:53.242Z,89.45
2018-12-21T04:28:53.320Z,89.36
2018-12-21T04:29:53.352Z,89.26
2018-12-21T04:30:53.404Z,89.07
2018-12-21T04:31:53.458Z,89.17
2018-12-21T04:32:53.507Z,88.68
2018-12-21T04:33:53.551Z,89.26
2018-12-21T04:34:53.603Z,89.84
2018-12-21T04:35:53.655Z,89.26
2018-12-21T04:36:53.699Z,89.36
2018-12-21T04:37:53.769Z,89.26
2018-12-21T04:38:53.809Z,89.45
2018-12-21T04:39:53.855Z,89.26
2018-12-21T04:40:53.897Z,89.26
2018-12-21T04:41:53.951Z,89.65
2018-12-21T04:42:54.275Z,89.75
2018-12-21T04:43:54.069Z,90.33
2018-12-21T04:44:54.099Z,90.33
2018-12-21T04:45:54.156Z,90.33
2018-12-21T04:46:54.183Z,90.62
2018-12-21T04:47:54.259Z,90.91
2018-12-21T04:48:54.315Z,90.81
2018-12-21T04:49:54.361Z,91.50
2018-12-21T04:50:54.404Z,91.16
2018-12-21T04:51:54.476Z,91.30
2018-12-21T04:52:54.492Z,91.20
2018-12-21T04:53:54.800Z,91.25
2018-12-21T04:54:54.610Z,91.64
2018-12-21T04:55:54.700Z,92.08
2018-12-21T04:56:54.718Z,91.94
2018-12-21T04:57:54.750Z,91.94
2018-12-21T04:58:54.845Z,92.03
2018-12-21T04:59:54.846Z,91.74
2018-12-21T05:00:54.884Z,92.42
2018-12-21T05:01:54.929Z,92.42
2018-12-21T05:02:54.986Z,92.42
2018-12-21T05:03:55.050Z,92.22
2018-12-21T05:04:55.081Z,92.22
2018-12-21T05:05:55.148Z,92.13
2018-12-21T05:06:55.241Z,92.61
2018-12-21T05:07:55.245Z,92.32
2018-12-21T05:08:55.292Z,92.42
2018-12-21T05:09:55.343Z,93.01
2018-12-21T05:10:55.388Z,93.68
2018-12-21T05:11:55.446Z,93.68
2018-12-21T05:12:55.626Z,93.98
2018-12-21T05:13:55.568Z,94.07
2018-12-21T05:14:55.606Z,94.26
2018-12-21T05:15:55.626Z,94.75
2018-12-21T05:16:55.726Z,94.95
2018-12-21T05:17:55.747Z,94.80
2018-12-21T05:18:55.786Z,95.04
2018-12-21T05:19:55.878Z,94.80
2018-12-21T05:20:55.875Z,95.29
2018-12-21T05:21:55.944Z,95.39
2018-12-21T05:22:56.001Z,95.39
2018-12-21T05:23:56.083Z,95.48
2018-12-21T05:24:56.089Z,95.19
2018-12-21T05:25:56.122Z,95.19
2018-12-21T05:26:56.256Z,95.67
2018-12-21T05:27:56.218Z,95.97
2018-12-21T05:28:56.301Z,96.64
2018-12-21T05:29:56.376Z,96.74
2018-12-21T05:30:56.373Z,96.74
2018-12-21T05:31:56.452Z,96.64
2018-12-21T05:32:56.481Z,96.94
2018-12-21T05:33:56.539Z,97.33
2018-12-21T05:34:56.570Z,97.08
2018-12-21T05:35:56.613Z,96.98
2018-12-21T05:36:56.693Z,97.08
2018-12-21T05:37:56.741Z,97.56
2018-12-21T05:38:56.784Z,97.38
2018-12-21T05:39:56.847Z,97.47
2018-12-21T05:40:56.871Z,97.96
2018-12-21T05:41:56.926Z,98.05
2018-12-21T05:42:56.963Z,98.25
2018-12-21T05:43:57.042Z,98.05
2018-12-21T05:44:57.085Z,98.30
2018-12-21T05:45:57.127Z,99.02
2018-12-21T05:46:57.185Z,98.63
2018-12-21T05:47:57.226Z,98.83
2018-12-21T05:48:57.281Z,99.22
2018-12-21T05:49:57.316Z,99.12
2018-12-21T05:50:57.425Z,98.83
2018-12-21T05:51:57.424Z,99.51
2018-12-21T05:53:00.926Z,99.22
2018-12-21T05:53:57.521Z,99.22
2018-12-21T05:54:57.564Z,99.41
2018-12-21T05:55:57.596Z,99.41
2018-12-21T05:56:57.656Z,99.51
2018-12-21T05:57:57.739Z,99.90
2018-12-21T05:58:57.764Z,99.51
2018-12-21T05:59:57.819Z,99.51
2018-12-21T06:00:57.870Z,99.51
2018-12-21T06:01:57.933Z,99.90
2018-12-21T06:02:57.972Z,99.90
2018-12-21T06:03:58.018Z,99.99
2018-12-21T06:04:58.074Z,99.99
2018-12-21T06:05:58.130Z,99.99
2018-12-21T06:06:58.168Z,99.99
2018-12-21T06:07:58.267Z,99.99
2018-12-21T06:08:58.265Z,99.99
2018-12-21T06:09:58.311Z,99.99
2018-12-21T06:10:58.374Z,99.99
2018-12-21T06:11:58.401Z,99.99
2018-12-21T06:12:58.478Z,99.99
2018-12-21T06:13:58.535Z,99.99
2018-12-21T06:14:58.571Z,99.99
2018-12-21T06:15:58.616Z,99.99
2018-12-21T06:16:58.686Z,99.99
2018-12-21T06:17:58.715Z,99.99
2018-12-21T06:18:58.764Z,99.99
2018-12-21T06:19:58.805Z,99.99
2018-12-21T06:20:58.867Z,99.99
2018-12-21T06:21:58.927Z,99.99
2018-12-21T06:22:58.982Z,99.99
2018-12-21T06:23:59.021Z,99.99
2018-12-21T06:24:59.060Z,99.99
2018-12-21T06:25:59.105Z,99.99
2018-12-21T06:26:59.164Z,99.99
2018-12-21T06:27:59.210Z,99.99
2018-12-21T06:28:59.290Z,99.99
2018-12-21T06:29:59.296Z,99.99
2018-12-21T06:30:59.398Z,99.99
2018-12-21T06:31:59.431Z,99.99
2018-12-21T06:32:59.449Z,99.99
2018-12-21T06:33:59.506Z,99.99
2018-12-21T06:34:59.531Z,99.99
2018-12-21T06:35:59.650Z,99.99
2018-12-21T06:36:59.664Z,99.99
2018-12-21T06:37:59.695Z,99.99
2018-12-21T06:38:59.743Z,99.99
2018-12-21T06:39:59.804Z,99.99
2018-12-21T06:40:59.882Z,99.99
2018-12-21T06:41:59.901Z,99.99
2018-12-21T06:42:59.945Z,99.99
2018-12-21T06:44:00.006Z,99.99
2018-12-21T06:45:00.030Z,99.99
2018-12-21T06:46:00.093Z,99.99
2018-12-21T06:47:00.128Z,99.99
2018-12-21T06:48:00.187Z,99.99
2018-12-21T06:49:00.240Z,99.99
2018-12-21T06:50:00.299Z,99.99
2018-12-21T06:51:00.337Z,99.99
2018-12-21T06:52:00.381Z,99.99
2018-12-21T06:53:00.464Z,99.99
2018-12-21T06:54:00.473Z,99.99
2018-12-21T06:55:00.530Z,99.99
2018-12-21T06:56:00.585Z,99.99
2018-12-21T06:57:00.877Z,99.99
2018-12-21T06:58:00.677Z,99.99
2018-12-21T06:59:00.718Z,99.99
2018-12-21T07:00:00.780Z,99.99
2018-12-21T07:01:00.839Z,99.99
2018-12-21T07:02:00.889Z,99.99
2018-12-21T07:03:00.929Z,99.99
2018-12-21T07:04:00.973Z,99.99
2018-12-21T07:05:01.027Z,99.99
2018-12-21T07:06:01.068Z,99.99
2018-12-21T07:07:01.123Z,99.99
2018-12-21T07:08:01.192Z,99.99
2018-12-21T07:09:01.220Z,99.99
2018-12-21T07:10:01.391Z,99.99
2018-12-21T07:11:01.332Z,99.99
2018-12-21T07:12:01.425Z,99.99
2018-12-21T07:13:01.439Z,99.99
2018-12-21T07:14:01.479Z,99.99
2018-12-21T07:15:01.558Z,99.99
2018-12-21T07:16:01.596Z,99.99
2018-12-21T07:17:01.620Z,99.99
2018-12-21T07:18:01.670Z,99.99
2018-12-21T07:19:01.776Z,99.99
2018-12-21T07:20:01.787Z,99.99
2018-12-21T07:21:01.832Z,99.99
2018-12-21T07:22:01.944Z,99.99
2018-12-21T07:23:01.907Z,99.99
2018-12-21T07:24:01.967Z,99.99
2018-12-21T07:25:02.021Z,99.99
2018-12-21T07:26:02.064Z,99.99
2018-12-21T07:27:02.134Z,99.99
2018-12-21T07:28:02.153Z,99.99
2018-12-21T07:29:02.221Z,99.99
2018-12-21T07:30:02.246Z,99.99
2018-12-21T07:31:02.322Z,99.99
2018-12-21T07:32:02.371Z,99.99
2018-12-21T07:33:02.457Z,99.99
2018-12-21T07:34:02.450Z,99.99
2018-12-21T07:35:02.521Z,99.99
2018-12-21T07:36:08.287Z,99.99
2018-12-21T07:37:02.613Z,99.99
2018-12-21T07:38:02.664Z,99.99
2018-12-21T07:39:02.716Z,99.99
2018-12-21T07:40:02.769Z,99.99
2018-12-21T07:41:02.822Z,99.99
2018-12-21T07:42:02.869Z,99.99
2018-12-21T07:43:02.918Z,99.99
2018-12-21T07:44:02.962Z,99.99
2018-12-21T07:45:02.981Z,99.99
2018-12-21T07:46:03.035Z,99.99
2018-12-21T07:47:03.150Z,99.99
2018-12-21T07:48:03.135Z,99.99
2018-12-21T07:49:03.508Z,99.99
2018-12-21T07:50:03.251Z,99.99
2018-12-21T07:51:03.286Z,99.99
2018-12-21T07:52:03.346Z,99.99
2018-12-21T07:53:03.413Z,99.99
2018-12-21T07:54:03.439Z,99.99
2018-12-21T07:55:03.489Z,99.99
2018-12-21T07:56:03.527Z,99.99
2018-12-21T07:57:03.592Z,99.99
2018-12-21T07:58:03.653Z,99.99
2018-12-21T07:59:03.716Z,99.99
2018-12-21T08:00:03.740Z,99.99
2018-12-21T08:01:03.791Z,99.99
2018-12-21T08:02:03.831Z,99.99
2018-12-21T08:03:03.869Z,99.99
2018-12-21T08:04:03.915Z,99.99
2018-12-21T08:05:04.002Z,99.99
2018-12-21T08:06:04.031Z,99.99
2018-12-21T08:07:04.085Z,99.99
2018-12-21T08:08:04.125Z,99.99
2018-12-21T08:09:04.156Z,99.99
2018-12-21T08:10:04.213Z,99.99
2018-12-21T08:11:04.312Z,99.99
2018-12-21T08:12:04.329Z,99.99
2018-12-21T08:13:04.355Z,99.99
2018-12-21T08:14:04.424Z,99.99
2018-12-21T08:15:04.451Z,99.99
2018-12-21T08:16:04.554Z,99.99
2018-12-21T08:17:04.557Z,99.99
2018-12-21T08:18:04.622Z,99.99
2018-12-21T08:19:04.654Z,99.99
2018-12-21T08:20:04.701Z,99.99
2018-12-21T08:21:04.744Z,99.99
2018-12-21T08:22:04.841Z,99.99
2018-12-21T08:23:04.833Z,99.99
2018-12-21T08:24:04.865Z,99.99
2018-12-21T08:25:04.931Z,99.99
2018-12-21T08:26:04.987Z,99.99
2018-12-21T08:27:05.082Z,99.99
2018-12-21T08:28:05.085Z,99.99
2018-12-21T08:29:05.131Z,99.99
2018-12-21T08:30:05.221Z,99.99
2018-12-21T08:31:05.220Z,99.99
2018-12-21T08:32:05.323Z,99.99
2018-12-21T08:33:05.328Z,99.99
2018-12-21T08:34:05.369Z,99.99
2018-12-21T08:35:05.407Z,99.99
2018-12-21T08:36:05.476Z,99.99
2018-12-21T08:37:05.499Z,99.99
2018-12-21T08:38:05.546Z,99.99
2018-12-21T08:39:05.595Z,99.99
2018-12-21T08:40:05.653Z,99.99
2018-12-21T08:41:05.730Z,99.99
2018-12-21T08:42:05.766Z,99.99
2018-12-21T08:43:05.799Z,99.99
2018-12-21T08:44:05.857Z,99.99
2018-12-21T08:45:05.905Z,99.99
2018-12-21T08:46:05.949Z,99.99
2018-12-21T08:47:05.965Z,99.99
2018-12-21T08:48:06.047Z,99.99
2018-12-21T08:49:06.111Z,99.99
2018-12-21T08:50:06.235Z,99.99
2018-12-21T08:51:06.237Z,99.99
2018-12-21T08:52:06.257Z,99.99
2018-12-21T08:53:06.323Z,99.99
2018-12-21T08:54:06.336Z,99.99
2018-12-21T08:55:06.365Z,99.99
2018-12-21T08:56:06.443Z,99.99
2018-12-21T08:57:06.509Z,99.99
2018-12-21T08:58:06.515Z,99.99
2018-12-21T08:59:06.563Z,99.99
2018-12-21T09:00:06.677Z,99.99
2018-12-21T09:01:06.676Z,99.99
2018-12-21T09:02:06.730Z,99.99
2018-12-21T09:03:06.754Z,99.99
2018-12-21T09:04:06.843Z,99.99
2018-12-21T09:05:06.869Z,99.99
2018-12-21T09:06:06.918Z,99.99
2018-12-21T09:07:06.972Z,99.99
2018-12-21T09:08:06.996Z,99.99
2018-12-21T09:09:07.056Z,99.99
2018-12-21T09:10:07.107Z,99.99
2018-12-21T09:11:07.175Z,99.99
2018-12-21T09:12:07.177Z,99.99
2018-12-21T09:13:07.238Z,99.99
2018-12-21T09:14:07.347Z,99.99
2018-12-21T09:15:07.323Z,99.99
2018-12-21T09:16:07.357Z,99.99
2018-12-21T09:17:07.439Z,99.99
2018-12-21T09:18:07.495Z,99.99
2018-12-21T09:19:07.510Z,99.99
2018-12-21T09:20:07.619Z,99.99
2018-12-21T09:21:07.641Z,99.99
2018-12-21T09:22:07.670Z,99.99
2018-12-21T09:23:07.713Z,99.99
2018-12-21T09:24:07.778Z,99.99
2018-12-21T09:25:07.825Z,99.99
2018-12-21T09:26:07.850Z,99.99
2018-12-21T09:27:07.945Z,99.99
2018-12-21T09:28:07.940Z,99.99
2018-12-21T09:29:08.016Z,99.99
2018-12-21T09:30:08.047Z,99.99
2018-12-21T09:31:08.105Z,99.99
2018-12-21T09:32:08.166Z,99.99
2018-12-21T09:33:08.190Z,99.99
2018-12-21T09:34:08.247Z,99.99
2018-12-21T09:35:08.286Z,99.99
2018-12-21T09:36:08.346Z,99.99
2018-12-21T09:37:08.376Z,99.99
2018-12-21T09:38:08.444Z,99.99
2018-12-21T09:39:08.495Z,99.99
2018-12-21T09:40:08.522Z,99.99
2018-12-21T09:41:08.584Z,99.99
2018-12-21T09:42:08.618Z,99.99
2018-12-21T09:43:08.695Z,99.99
2018-12-21T09:44:08.754Z,99.99
2018-12-21T09:45:08.766Z,99.99
2018-12-21T09:46:08.815Z,99.99
2018-12-21T09:47:08.905Z,99.99
2018-12-21T09:48:08.901Z,99.99
2018-12-21T09:49:08.959Z,99.99
2018-12-21T09:50:09.019Z,99.99
2018-12-21T09:51:09.061Z,99.99
2018-12-21T09:52:09.108Z,99.99
2018-12-21T09:53:09.149Z,99.99
2018-12-21T09:54:09.989Z,99.99
2018-12-21T09:55:09.256Z,99.99
2018-12-21T09:56:09.294Z,99.99
2018-12-21T09:57:09.329Z,99.99
2018-12-21T09:58:09.391Z,99.99
2018-12-21T09:59:09.429Z,99.99
2018-12-21T10:01:09.577Z,99.99
2018-12-21T10:02:09.592Z,99.99
2018-12-21T10:03:09.656Z,99.99
2018-12-21T10:04:09.720Z,99.99
2018-12-21T10:05:09.720Z,99.99
2018-12-21T10:06:09.778Z,99.99
2018-12-21T10:07:09.820Z,99.99
2018-12-21T10:08:09.855Z,99.99
2018-12-21T10:09:09.956Z,99.99
2018-12-21T10:10:09.965Z,99.99
2018-12-21T10:11:10.048Z,99.99
2018-12-21T10:12:10.052Z,99.99
2018-12-21T10:13:10.131Z,99.99
2018-12-21T10:14:10.157Z,99.99
2018-12-21T10:15:10.241Z,99.99
2018-12-21T10:16:10.237Z,99.99
2018-12-21T10:17:10.283Z,99.99
2018-12-21T10:18:10.338Z,99.99
2018-12-21T10:19:10.389Z,99.99
2018-12-21T10:20:10.432Z,99.99
2018-12-21T10:21:10.496Z,99.99
2018-12-21T10:22:10.523Z,99.99
2018-12-21T10:23:10.562Z,99.99
2018-12-21T10:24:18.291Z,99.99
2018-12-21T10:25:10.687Z,99.99
2018-12-21T10:26:10.714Z,99.99
2018-12-21T10:27:10.749Z,99.99
2018-12-21T10:28:10.811Z,99.99
2018-12-21T10:29:10.854Z,99.99
2018-12-21T10:30:10.926Z,99.99
2018-12-21T10:31:10.996Z,99.99
2018-12-21T10:32:11.029Z,99.99
2018-12-21T10:33:11.070Z,99.99
2018-12-21T10:34:11.130Z,99.99
2018-12-21T10:35:11.194Z,99.99
2018-12-21T10:36:11.210Z,99.99
2018-12-21T10:37:11.287Z,99.99
2018-12-21T10:38:11.315Z,99.99
2018-12-21T10:39:11.358Z,99.99
2018-12-21T10:40:11.375Z,99.99
2018-12-21T10:41:11.436Z,99.99
2018-12-21T10:42:11.529Z,99.99
2018-12-21T10:43:11.532Z,99.99
2018-12-21T10:44:11.575Z,99.99
2018-12-21T10:45:11.634Z,99.99
2018-12-21T10:46:11.700Z,99.99
2018-12-21T10:47:11.719Z,99.99
2018-12-21T10:48:11.800Z,99.99
2018-12-21T10:49:11.825Z,99.99
2018-12-21T10:50:11.875Z,99.99
2018-12-21T10:51:11.925Z,99.99
2018-12-21T10:52:12.014Z,99.99
2018-12-21T10:53:12.033Z,99.99
2018-12-21T10:54:12.059Z,99.99
2018-12-21T10:55:12.119Z,99.99
2018-12-21T10:56:12.170Z,99.99
2018-12-21T10:57:12.210Z,99.99
2018-12-21T10:58:12.250Z,99.99
2018-12-21T10:59:12.284Z,99.99
2018-12-21T11:00:12.359Z,99.99
2018-12-21T11:01:12.422Z,99.99
2018-12-21T11:02:12.436Z,99.99
2018-12-21T11:03:12.501Z,99.99
2018-12-21T11:04:12.532Z,99.99
2018-12-21T11:05:14.794Z,99.99
2018-12-21T11:06:12.647Z,99.99
2018-12-21T11:07:12.703Z,99.99
2018-12-21T11:08:12.851Z,99.99
2018-12-21T11:09:12.802Z,99.99
2018-12-21T11:10:12.823Z,99.99
2018-12-21T11:11:12.888Z,99.99
2018-12-21T11:12:12.926Z,99.99
2018-12-21T11:13:12.976Z,99.99
2018-12-21T11:14:13.033Z,99.99
2018-12-21T11:15:13.056Z,99.99
2018-12-21T11:16:13.108Z,99.99
2018-12-21T11:17:13.174Z,99.99
2018-12-21T11:18:13.206Z,99.99
2018-12-21T11:19:13.240Z,99.99
2018-12-21T11:20:13.327Z,99.99
2018-12-21T11:21:13.352Z,99.99
2018-12-21T11:22:13.424Z,99.99
2018-12-21T11:23:13.473Z,99.99
2018-12-21T11:24:13.622Z,99.99
2018-12-21T11:25:13.573Z,99.99
2018-12-21T11:26:13.609Z,99.99
2018-12-21T11:27:13.691Z,99.99
2018-12-21T11:28:13.704Z,99.99
2018-12-21T11:29:13.745Z,99.99
2018-12-21T11:30:13.795Z,99.99
2018-12-21T11:31:13.830Z,99.99
2018-12-21T11:32:13.887Z,99.99
2018-12-21T11:33:13.946Z,99.99
2018-12-21T11:34:13.993Z,99.99
2018-12-21T11:35:14.047Z,99.99
2018-12-21T11:36:14.100Z,99.99
2018-12-21T11:37:14.134Z,99.99
2018-12-21T11:38:14.173Z,99.99
2018-12-21T11:39:14.254Z,99.99
2018-12-21T11:40:14.295Z,99.99
2018-12-21T11:41:14.340Z,99.99
2018-12-21T11:42:14.409Z,99.99
2018-12-21T11:43:14.411Z,99.99
2018-12-21T11:44:14.465Z,99.99
2018-12-21T11:45:14.552Z,99.99
2018-12-21T11:46:14.583Z,99.99
2018-12-21T11:47:14.624Z,99.99
2018-12-21T11:48:14.680Z,99.99
2018-12-21T11:49:14.723Z,99.99
2018-12-21T11:50:14.825Z,99.99
2018-12-21T11:51:14.810Z,99.99
2018-12-21T11:52:14.898Z,99.99
2018-12-21T11:53:14.923Z,99.99
2018-12-21T11:54:15.011Z,99.99
2018-12-21T11:55:15.047Z,99.99
2018-12-21T11:56:15.369Z,99.99
2018-12-21T11:57:15.128Z,99.99
2018-12-21T11:58:15.168Z,99.99
2018-12-21T11:59:15.192Z,99.99
2018-12-21T12:00:15.239Z,99.99
2018-12-21T12:01:15.307Z,99.99
2018-12-21T12:02:19.494Z,99.99
2018-12-21T12:03:15.447Z,99.99
2018-12-21T12:04:15.555Z,99.99
2018-12-21T12:05:15.503Z,99.99
2018-12-21T12:06:15.560Z,99.99
2018-12-21T12:07:15.656Z,99.99
2018-12-21T12:08:15.643Z,99.99
2018-12-21T12:09:15.734Z,99.99
2018-12-21T12:10:15.790Z,99.99
2018-12-21T12:11:15.796Z,99.99
2018-12-21T12:12:15.883Z,99.99
2018-12-21T12:13:15.896Z,99.99
2018-12-21T12:14:15.937Z,99.99
2018-12-21T12:15:16.009Z,99.99
2018-12-21T12:16:16.061Z,99.99
2018-12-21T12:17:16.089Z,99.99
2018-12-21T12:18:16.171Z,99.99
2018-12-21T12:19:16.207Z,99.99
2018-12-21T12:20:16.263Z,99.99
2018-12-21T12:21:16.315Z,99.99
2018-12-21T12:22:16.357Z,99.99
2018-12-21T12:23:16.388Z,99.99
2018-12-21T12:24:16.433Z,99.99
2018-12-21T12:25:16.495Z,99.99
2018-12-21T12:26:16.553Z,99.99
2018-12-21T12:27:16.607Z,99.99
2018-12-21T12:28:16.651Z,99.99
2018-12-21T12:29:16.703Z,99.99
2018-12-21T12:30:16.759Z,99.99
2018-12-21T12:31:16.791Z,99.99
2018-12-21T12:32:16.868Z,99.99
2018-12-21T12:33:16.946Z,99.99
2018-12-21T12:34:16.963Z,99.99
2018-12-21T12:35:17.012Z,99.99
2018-12-21T12:36:17.070Z,99.99
2018-12-21T12:37:17.089Z,99.99
2018-12-21T12:38:17.155Z,99.99
2018-12-21T12:39:17.213Z,99.99
2018-12-21T12:40:17.259Z,99.99
2018-12-21T12:41:17.308Z,99.99
2018-12-21T12:42:17.367Z,99.99
2018-12-21T12:43:17.414Z,99.99
2018-12-21T12:44:17.481Z,99.99
2018-12-21T12:45:17.509Z,99.99
2018-12-21T12:46:17.605Z,99.99
2018-12-21T12:47:17.604Z,99.99
2018-12-21T12:48:17.660Z,99.99
2018-12-21T12:49:17.842Z,99.99
2018-12-21T12:50:17.785Z,99.99
2018-12-21T12:51:17.823Z,99.99
2018-12-21T12:52:17.856Z,99.99
2018-12-21T12:53:17.904Z,99.99
2018-12-21T12:54:17.943Z,99.99